Time;durP1;ratioP1;P1;durP2;ratioP2;P2;SDS_P1;SDS_P2;PMS_P1;PMS_P2;Temp;Humidity;BMP_temperature;BMP_pressure;BME280_temperature;BME280_humidity;BME280_pressure;Samples;Min_cycle;Max_cycle;Signal;HPM_P1;HPM_P2
2022/10/11 00:02:22;;;;;;;18.95;4.43;;;6.60;99.90;;;;;;5043676;28;20107;-83
2022/10/11 00:04:49;;;;;;;23.25;4.53;;;6.60;99.90;;;;;;5041407;28;20091;-85
2022/10/11 00:07:16;;;;;;;21.25;4.20;;;6.60;99.90;;;;;;5037051;28;20156;-84
2022/10/11 00:09:41;;;;;;;33.83;4.88;;;6.60;99.90;;;;;;5040618;28;20446;-81
2022/10/11 00:12:07;;;;;;;20.90;4.57;;;6.60;99.90;;;;;;5046278;28;20033;-85
2022/10/11 00:14:33;;;;;;;20.98;4.15;;;6.60;99.90;;;;;;5044597;28;20045;-86
2022/10/11 00:16:58;;;;;;;19.45;4.78;;;6.70;99.90;;;;;;5031583;28;20381;-85
2022/10/11 00:19:24;;;;;;;23.73;4.63;;;6.60;99.90;;;;;;5041234;28;20487;-83
2022/10/11 00:21:49;;;;;;;25.27;5.25;;;6.70;99.90;;;;;;5048690;28;20037;-85
2022/10/11 00:24:15;;;;;;;19.52;5.00;;;6.60;99.90;;;;;;5047581;28;20127;-83
2022/10/11 00:26:41;;;;;;;28.65;5.05;;;6.60;99.90;;;;;;5039498;28;20311;-84
2022/10/11 00:29:07;;;;;;;17.92;4.63;;;6.60;99.90;;;;;;5046309;28;20033;-84
2022/10/11 00:31:32;;;;;;;18.73;4.72;;;6.60;99.90;;;;;;5045771;28;20483;-84
2022/10/11 00:33:58;;;;;;;21.33;4.72;;;6.50;99.90;;;;;;5037660;28;20112;-85
2022/10/11 00:36:23;;;;;;;20.40;5.32;;;6.50;99.90;;;;;;5049850;28;20036;-85
2022/10/11 00:38:49;;;;;;;24.25;4.25;;;6.50;99.90;;;;;;5047856;28;20037;-82
2022/10/11 00:41:16;;;;;;;19.10;4.72;;;6.60;99.90;;;;;;5048249;28;20055;-85
2022/10/11 00:43:42;;;;;;;23.92;4.78;;;6.50;99.90;;;;;;5048592;28;20040;-86
2022/10/11 00:46:16;;;;;;;25.42;4.28;;;6.50;99.90;;;;;;5046889;28;20108;-84
2022/10/11 00:48:49;;;;;;;20.02;5.03;;;6.40;99.90;;;;;;5041480;28;20040;-80
2022/10/11 00:51:24;;;;;;;23.92;5.03;;;6.40;99.90;;;;;;5048483;28;20033;-85
2022/10/11 00:53:51;;;;;;;20.15;4.30;;;6.20;99.90;;;;;;5044186;28;20408;-82
2022/10/11 00:56:25;;;;;;;25.48;4.53;;;6.20;99.90;;;;;;5058581;28;20101;-80
2022/10/11 00:58:51;;;;;;;17.98;4.57;;;6.20;99.90;;;;;;5062767;28;20452;-78
2022/10/11 01:01:17;;;;;;;36.13;5.72;;;6.20;99.90;;;;;;5069558;28;20111;-80
2022/10/11 01:03:43;;;;;;;26.23;4.88;;;6.10;99.90;;;;;;5063004;28;20180;-77
2022/10/11 01:06:09;;;;;;;23.60;4.53;;;6.10;99.90;;;;;;5066542;28;20033;-80
2022/10/11 01:08:36;;;;;;;32.42;5.28;;;6.10;99.90;;;;;;5063564;28;20097;-83
2022/10/11 01:11:02;;;;;;;20.58;5.40;;;6.10;99.90;;;;;;5042213;28;20093;-85
2022/10/11 01:14:21;;;;;;;23.50;5.28;;;6.20;99.90;;;;;;5049030;28;20520;-82
2022/10/11 01:17:02;;;;;;;23.13;4.63;;;6.10;99.90;;;;;;4974492;28;20362;-85
2022/10/11 01:19:51;;;;;;;20.50;5.50;;;6.10;99.90;;;;;;4982965;28;20034;-81
2022/10/11 01:22:52;;;;;;;24.40;5.10;;;6.10;99.90;;;;;;5033035;28;20161;-84
2022/10/11 01:25:38;;;;;;;19.15;4.68;;;6.10;99.90;;;;;;5033657;28;20091;-82
2022/10/11 01:28:25;;;;;;;28.50;5.40;;;6.10;99.90;;;;;;5048998;28;20036;-85
2022/10/11 01:30:52;;;;;;;30.40;5.18;;;6.10;99.90;;;;;;5041055;28;20052;-84
2022/10/11 01:33:22;;;;;;;28.38;6.22;;;6.20;99.90;;;;;;5041891;28;20037;-85
2022/10/11 01:35:52;;;;;;;32.83;5.93;;;6.20;99.90;;;;;;5042442;28;20064;-84
2022/10/11 01:38:38;;;;;;;22.05;5.10;;;6.20;99.90;;;;;;5041048;28;20029;-85
2022/10/11 01:41:08;;;;;;;25.35;5.65;;;6.10;99.90;;;;;;5047078;28;20086;-84
2022/10/11 01:43:36;;;;;;;25.98;5.72;;;6.10;99.90;;;;;;5055807;28;20061;-86
2022/10/11 01:46:02;;;;;;;26.00;5.32;;;6.20;99.90;;;;;;5045231;28;20385;-83
2022/10/11 01:48:28;;;;;;;25.00;5.18;;;6.10;99.90;;;;;;5034234;28;20029;-83
2022/10/11 01:51:00;;;;;;;25.27;5.95;;;6.10;99.90;;;;;;5044068;28;20399;-84
2022/10/11 01:53:45;;;;;;;35.08;5.72;;;6.10;99.90;;;;;;5044758;28;20036;-83
2022/10/11 01:56:29;;;;;;;24.38;5.60;;;6.10;99.90;;;;;;5044585;28;20346;-85
2022/10/11 01:59:21;;;;;;;28.48;5.25;;;6.00;99.90;;;;;;5034868;28;20039;-84
2022/10/11 02:01:56;;;;;;;23.65;4.72;;;5.90;99.90;;;;;;5046414;28;20173;-85
2022/10/11 02:04:37;;;;;;;21.73;5.70;;;5.80;99.90;;;;;;5041238;28;20161;-82
2022/10/11 02:07:14;;;;;;;16.20;5.13;;;5.90;99.90;;;;;;5036804;28;20070;-83
2022/10/11 02:10:11;;;;;;;27.02;5.18;;;5.80;99.90;;;;;;5038314;28;20040;-86
2022/10/11 02:12:41;;;;;;;31.27;5.80;;;5.90;99.90;;;;;;5046710;28;20047;-85
2022/10/11 02:15:09;;;;;;;33.30;6.07;;;6.00;99.90;;;;;;5033835;28;20032;-85
2022/10/11 02:17:40;;;;;;;29.88;5.55;;;6.10;99.90;;;;;;5042667;28;20113;-85
2022/10/11 02:20:13;;;;;;;27.02;5.53;;;6.00;99.90;;;;;;5038829;28;20112;-83
2022/10/11 02:22:42;;;;;;;37.42;5.75;;;6.10;99.90;;;;;;5033287;28;20131;-85
2022/10/11 02:25:14;;;;;;;21.92;5.63;;;6.10;99.90;;;;;;5044721;28;20403;-82
2022/10/11 02:27:41;;;;;;;27.25;5.85;;;6.10;99.90;;;;;;5041845;28;20032;-85
2022/10/11 02:30:08;;;;;;;27.00;5.38;;;6.10;99.90;;;;;;5047839;28;20063;-83
2022/10/11 02:32:38;;;;;;;26.77;5.80;;;6.10;99.90;;;;;;5043052;28;20128;-85
2022/10/11 02:35:04;;;;;;;21.73;5.37;;;6.10;99.90;;;;;;5039265;28;20079;-82
2022/10/11 02:37:50;;;;;;;31.50;5.78;;;6.00;99.90;;;;;;5038421;28;20152;-85
2022/10/11 02:40:26;;;;;;;28.30;5.82;;;6.00;99.90;;;;;;5039314;28;20034;-85
2022/10/11 02:43:05;;;;;;;31.77;6.32;;;6.10;99.90;;;;;;5040392;28;20184;-86
2022/10/11 02:45:51;;;;;;;33.65;6.45;;;6.20;99.90;;;;;;5051260;28;20060;-86
2022/10/11 02:48:17;;;;;;;22.30;5.78;;;6.30;99.90;;;;;;5043001;28;20036;-85
2022/10/11 02:50:43;;;;;;;22.65;6.20;;;6.40;99.90;;;;;;5048294;28;20139;-85
2022/10/11 02:53:08;;;;;;;26.10;6.20;;;6.50;99.90;;;;;;5046446;28;20250;-84
2022/10/11 02:55:34;;;;;;;33.40;7.75;;;6.50;99.90;;;;;;5040765;28;20041;-85
2022/10/11 02:58:00;;;;;;;26.45;5.95;;;6.60;99.90;;;;;;5047107;28;20037;-84
2022/10/11 03:00:25;;;;;;;29.73;5.88;;;6.60;99.90;;;;;;5050435;28;20040;-85
2022/10/11 03:02:51;;;;;;;33.00;6.43;;;6.70;99.90;;;;;;5047001;28;20446;-85
2022/10/11 03:05:17;;;;;;;24.90;6.55;;;6.70;99.90;;;;;;5046504;28;20096;-85
2022/10/11 03:07:42;;;;;;;25.98;6.30;;;6.70;99.90;;;;;;5049106;28;20489;-86
2022/10/11 03:10:08;;;;;;;37.25;6.47;;;6.70;99.90;;;;;;5033806;28;20128;-83
2022/10/11 03:12:33;;;;;;;27.88;5.63;;;6.60;99.90;;;;;;5033321;28;20041;-85
2022/10/11 03:14:59;;;;;;;27.92;6.20;;;6.50;99.90;;;;;;5044643;28;20057;-85
2022/10/11 03:17:26;;;;;;;24.80;6.38;;;6.50;99.90;;;;;;5048087;28;20024;-86
2022/10/11 03:19:52;;;;;;;25.88;5.88;;;6.50;99.90;;;;;;5046903;28;20447;-81
2022/10/11 03:22:17;;;;;;;37.90;6.53;;;6.50;99.90;;;;;;5046965;28;20991;-85
2022/10/11 03:24:43;;;;;;;29.23;6.18;;;6.50;99.90;;;;;;5038088;28;20035;-86
2022/10/11 03:27:08;;;;;;;30.73;6.50;;;6.50;99.90;;;;;;5041765;28;20117;-86
2022/10/11 03:29:34;;;;;;;33.35;6.72;;;6.50;99.90;;;;;;5037185;28;20057;-83
2022/10/11 03:31:59;;;;;;;36.33;6.57;;;6.40;99.90;;;;;;5039976;28;20029;-84
2022/10/11 03:34:25;;;;;;;32.20;5.65;;;6.40;99.90;;;;;;5049792;28;20033;-85
2022/10/11 03:36:50;;;;;;;24.80;5.55;;;6.40;99.90;;;;;;5049863;28;20107;-86
2022/10/11 03:39:16;;;;;;;30.60;6.57;;;6.30;99.90;;;;;;5040315;28;20116;-82
2022/10/11 03:41:41;;;;;;;30.25;6.32;;;6.30;99.90;;;;;;5042766;28;20452;-84
2022/10/11 03:44:07;;;;;;;25.98;6.38;;;6.30;99.90;;;;;;5042237;28;20401;-86
2022/10/11 03:46:32;;;;;;;22.10;5.72;;;6.20;99.90;;;;;;5037830;28;20025;-85
2022/10/11 03:48:58;;;;;;;26.13;6.15;;;6.10;99.90;;;;;;5038296;28;20154;-86
2022/10/11 03:51:23;;;;;;;27.88;5.53;;;6.10;99.90;;;;;;5045590;28;20037;-85
2022/10/11 03:53:48;;;;;;;30.55;6.70;;;6.10;99.90;;;;;;5040088;28;20388;-83
2022/10/11 03:56:14;;;;;;;24.35;6.18;;;6.10;99.90;;;;;;5043297;28;20037;-86
2022/10/11 03:58:40;;;;;;;35.65;5.63;;;6.00;99.90;;;;;;5050093;28;20021;-86
2022/10/11 04:01:06;;;;;;;29.77;5.53;;;5.90;99.90;;;;;;5043605;28;20034;-85
2022/10/11 04:03:32;;;;;;;20.25;5.50;;;5.90;99.90;;;;;;5057573;22;20182;-83
2022/10/11 04:05:57;;;;;;;26.02;5.75;;;5.90;99.90;;;;;;5017020;28;20115;-83
2022/10/11 04:08:33;;;;;;;31.50;6.28;;;5.80;99.90;;;;;;5037244;28;20040;-85
2022/10/11 04:10:58;;;;;;;34.83;6.50;;;5.80;99.90;;;;;;5047640;28;20033;-83
2022/10/11 04:13:24;;;;;;;26.75;5.97;;;5.80;99.90;;;;;;5039025;28;20481;-83
2022/10/11 04:15:49;;;;;;;23.77;6.13;;;5.70;99.90;;;;;;5056015;28;20032;-82
2022/10/11 04:18:15;;;;;;;24.13;5.95;;;5.70;99.90;;;;;;5043155;28;20549;-82
2022/10/11 04:20:40;;;;;;;22.80;6.28;;;5.70;99.90;;;;;;5057501;28;20071;-82
2022/10/11 04:23:06;;;;;;;28.17;5.88;;;5.60;99.90;;;;;;5054402;28;20495;-81
2022/10/11 04:25:31;;;;;;;27.55;5.60;;;5.70;99.90;;;;;;5060976;28;20013;-82
2022/10/11 04:27:57;;;;;;;29.52;6.93;;;5.70;99.90;;;;;;5039093;28;20040;-83
2022/10/11 04:30:22;;;;;;;28.10;6.40;;;5.70;99.90;;;;;;5047582;28;20076;-84
2022/10/11 04:32:48;;;;;;;33.35;5.95;;;5.80;99.90;;;;;;5068952;28;20032;-86
2022/10/11 04:35:13;;;;;;;25.95;5.60;;;5.70;99.90;;;;;;5071686;22;20060;-68
2022/10/11 04:37:39;;;;;;;34.25;6.95;;;5.70;99.90;;;;;;5063417;28;20038;-67
2022/10/11 04:40:07;;;;;;;33.95;7.55;;;5.80;99.90;;;;;;5066667;28;20025;-69
2022/10/11 04:42:33;;;;;;;37.38;5.95;;;5.80;99.90;;;;;;5066432;28;20142;-67
2022/10/11 04:44:58;;;;;;;36.90;7.63;;;5.80;99.90;;;;;;5067362;28;20036;-67
2022/10/11 04:47:24;;;;;;;27.70;6.35;;;5.80;99.90;;;;;;5065657;28;20059;-67
2022/10/11 04:49:49;;;;;;;27.55;7.10;;;5.90;99.90;;;;;;5065128;28;20025;-69
2022/10/11 04:52:15;;;;;;;29.33;6.72;;;5.90;99.90;;;;;;5055918;28;20029;-68
2022/10/11 04:54:40;;;;;;;35.03;6.78;;;6.10;99.90;;;;;;5060920;28;20100;-70
2022/10/11 04:57:05;;;;;;;28.55;6.28;;;6.10;99.90;;;;;;5064653;28;20028;-68
2022/10/11 04:59:31;;;;;;;33.08;7.22;;;6.20;99.90;;;;;;5060795;28;20036;-68
2022/10/11 05:01:57;;;;;;;34.45;7.47;;;6.30;99.90;;;;;;5061965;28;20449;-69
2022/10/11 05:04:22;;;;;;;34.95;7.72;;;6.30;99.90;;;;;;5063646;28;20445;-68
2022/10/11 05:06:48;;;;;;;30.27;7.25;;;6.40;99.90;;;;;;5064792;28;20040;-68
2022/10/11 05:09:13;;;;;;;30.58;6.93;;;6.40;99.90;;;;;;5052640;28;20024;-67
2022/10/11 05:11:39;;;;;;;25.48;7.60;;;6.40;99.90;;;;;;5054192;28;20403;-67
2022/10/11 05:14:04;;;;;;;46.03;8.20;;;6.40;99.90;;;;;;5058350;28;20048;-67
2022/10/11 05:16:30;;;;;;;32.67;8.05;;;6.50;99.90;;;;;;5066348;28;20414;-67
2022/10/11 05:18:55;;;;;;;27.48;8.43;;;6.50;99.90;;;;;;5054186;28;20036;-67
2022/10/11 05:21:27;;;;;;;33.80;7.15;;;6.50;99.90;;;;;;5065092;28;20088;-71
2022/10/11 05:23:56;;;;;;;35.60;7.43;;;6.60;99.90;;;;;;5049977;28;20123;-67
2022/10/11 05:26:23;;;;;;;28.42;7.65;;;6.50;99.90;;;;;;5060194;28;20040;-67
2022/10/11 05:28:49;;;;;;;34.22;7.82;;;6.60;99.90;;;;;;5054838;28;20041;-68
2022/10/11 05:31:15;;;;;;;34.90;7.93;;;6.50;99.90;;;;;;5062837;28;20032;-67
2022/10/11 05:33:41;;;;;;;43.83;8.13;;;6.60;99.90;;;;;;5067616;28;20123;-67
2022/10/11 05:36:08;;;;;;;25.48;8.43;;;6.60;99.90;;;;;;5057286;28;20463;-67
2022/10/11 05:38:34;;;;;;;40.20;8.57;;;6.60;99.90;;;;;;5056244;28;20059;-68
2022/10/11 05:41:01;;;;;;;32.58;9.40;;;6.60;99.90;;;;;;5053063;28;20227;-68
2022/10/11 05:43:27;;;;;;;29.63;8.57;;;6.60;99.90;;;;;;5058993;28;20037;-68
2022/10/11 05:45:52;;;;;;;27.17;8.35;;;6.60;99.90;;;;;;5050263;28;20044;-68
2022/10/11 05:48:18;;;;;;;34.97;8.95;;;6.60;99.90;;;;;;5066035;28;20048;-67
2022/10/11 05:50:44;;;;;;;25.80;8.00;;;6.60;99.90;;;;;;5057054;28;20173;-69
2022/10/11 05:53:09;;;;;;;29.55;9.00;;;6.70;99.90;;;;;;5066154;28;20054;-68
2022/10/11 05:55:39;;;;;;;27.30;8.88;;;6.60;99.90;;;;;;5059750;28;20151;-68
2022/10/11 05:58:11;;;;;;;33.45;8.70;;;6.60;99.90;;;;;;5068716;28;20067;-68
2022/10/11 06:00:36;;;;;;;44.25;9.10;;;6.60;99.90;;;;;;5061372;28;20024;-69
2022/10/11 06:03:03;;;;;;;31.98;8.02;;;6.60;99.90;;;;;;5081653;28;20164;-68
2022/10/11 06:05:29;;;;;;;40.45;9.23;;;6.60;99.90;;;;;;5056008;28;20089;-69
2022/10/11 06:07:54;;;;;;;30.98;8.98;;;6.60;99.90;;;;;;5068865;28;20107;-68
2022/10/11 06:10:19;;;;;;;35.75;8.63;;;6.50;99.90;;;;;;5065043;28;20032;-68
2022/10/11 06:12:45;;;;;;;41.90;8.68;;;6.50;99.90;;;;;;5061387;28;20515;-68
2022/10/11 06:15:10;;;;;;;38.72;8.45;;;6.40;99.90;;;;;;5068839;28;20036;-68
2022/10/11 06:17:36;;;;;;;27.20;8.10;;;6.40;99.90;;;;;;5067473;28;20077;-68
2022/10/11 06:20:03;;;;;;;29.05;8.65;;;6.30;99.90;;;;;;5068513;28;20036;-69
2022/10/11 06:22:28;;;;;;;35.25;8.52;;;6.30;99.90;;;;;;5068977;28;20201;-68
2022/10/11 06:24:54;;;;;;;30.90;8.43;;;6.30;99.90;;;;;;5064663;28;20072;-68
2022/10/11 06:27:19;;;;;;;40.47;9.27;;;6.20;99.90;;;;;;5066053;28;20051;-68
2022/10/11 06:29:45;;;;;;;45.35;9.73;;;6.20;99.90;;;;;;5068707;28;20107;-68
2022/10/11 06:32:12;;;;;;;32.00;8.02;;;6.20;99.90;;;;;;5065910;28;20041;-68
2022/10/11 06:34:37;;;;;;;34.55;8.95;;;6.10;99.90;;;;;;5068175;28;20032;-68
2022/10/11 06:37:03;;;;;;;32.17;8.70;;;6.10;99.90;;;;;;5054824;28;20338;-68
2022/10/11 06:39:28;;;;;;;31.48;8.32;;;6.20;99.90;;;;;;5064740;28;20367;-68
2022/10/11 06:41:54;;;;;;;34.55;8.25;;;6.20;99.90;;;;;;5065170;28;20183;-69
2022/10/11 06:44:19;;;;;;;35.95;8.65;;;6.20;99.90;;;;;;5064034;28;20033;-68
2022/10/11 06:46:44;;;;;;;38.92;8.27;;;6.30;99.90;;;;;;5068467;28;20387;-69
2022/10/11 06:49:10;;;;;;;35.97;7.68;;;6.30;99.90;;;;;;5060072;28;20036;-68
2022/10/11 06:51:35;;;;;;;32.17;7.43;;;6.30;99.90;;;;;;5068241;28;20025;-68
2022/10/11 06:54:01;;;;;;;36.03;8.05;;;6.40;99.90;;;;;;5064232;28;20473;-68
2022/10/11 06:56:29;;;;;;;39.35;7.53;;;6.40;99.90;;;;;;5065629;28;20093;-68
2022/10/11 06:58:56;;;;;;;22.20;8.30;;;6.40;99.90;;;;;;5066882;28;20379;-69
2022/10/11 07:01:22;;;;;;;30.63;7.47;;;6.40;99.90;;;;;;5067751;28;20032;-69
2022/10/11 07:03:50;;;;;;;31.63;8.02;;;6.50;99.90;;;;;;5067009;28;20039;-69
2022/10/11 07:06:18;;;;;;;39.20;7.22;;;6.50;99.90;;;;;;5055712;28;20454;-68
2022/10/11 07:08:44;;;;;;;34.17;7.40;;;6.50;99.90;;;;;;5062059;28;20032;-69
2022/10/11 07:11:12;;;;;;;32.85;8.32;;;6.50;99.90;;;;;;5059132;28;20029;-69
2022/10/11 07:13:39;;;;;;;29.42;8.05;;;6.50;99.90;;;;;;5067498;28;20024;-68
2022/10/11 07:16:08;;;;;;;39.00;7.78;;;6.60;99.90;;;;;;5066099;28;20471;-68
2022/10/11 07:18:34;;;;;;;39.38;7.97;;;6.60;99.90;;;;;;5055536;28;20021;-68
2022/10/11 07:21:07;;;;;;;30.50;7.15;;;6.70;99.90;;;;;;5062755;28;20414;-68
2022/10/11 07:23:33;;;;;;;30.80;7.40;;;6.70;99.90;;;;;;5061493;28;20222;-68
2022/10/11 07:25:59;;;;;;;34.60;7.22;;;6.70;99.90;;;;;;5065075;28;20126;-68
2022/10/11 07:28:24;;;;;;;30.98;6.95;;;6.80;99.90;;;;;;5068273;28;20041;-67
2022/10/11 07:30:50;;;;;;;31.75;7.50;;;6.90;99.90;;;;;;5058140;28;20059;-69
2022/10/11 07:33:15;;;;;;;20.35;7.20;;;6.90;99.90;;;;;;5071049;28;20420;-68
2022/10/11 07:35:41;;;;;;;32.30;8.00;;;7.00;99.90;;;;;;5060655;28;20052;-68
2022/10/11 07:38:07;;;;;;;30.88;7.25;;;7.00;99.90;;;;;;5065702;28;20044;-68
2022/10/11 07:40:39;;;;;;;33.03;7.63;;;7.10;99.90;;;;;;5058586;28;20097;-68
2022/10/11 07:43:04;;;;;;;28.20;6.95;;;7.10;99.90;;;;;;5064989;28;20337;-68
2022/10/11 07:45:30;;;;;;;29.67;6.35;;;7.20;99.90;;;;;;5071361;28;20035;-68
2022/10/11 07:47:55;;;;;;;27.90;6.43;;;7.30;99.90;;;;;;5063726;28;20037;-69
2022/10/11 07:50:21;;;;;;;26.38;6.40;;;7.30;99.90;;;;;;5071646;28;20110;-68
2022/10/11 07:52:47;;;;;;;33.58;7.72;;;7.40;99.90;;;;;;5069305;28;20202;-68
2022/10/11 07:55:12;;;;;;;26.98;7.40;;;7.50;99.90;;;;;;5054579;28;20032;-69
2022/10/11 07:57:38;;;;;;;26.88;7.25;;;7.70;99.90;;;;;;5068874;28;20036;-68
2022/10/11 08:00:04;;;;;;;33.20;7.25;;;7.80;99.90;;;;;;5069073;28;20024;-69
2022/10/11 08:02:30;;;;;;;35.80;7.55;;;7.90;99.80;;;;;;5078440;28;20021;-68
2022/10/11 08:04:55;;;;;;;35.60;7.75;;;8.00;99.80;;;;;;5058723;28;20493;-69
2022/10/11 08:07:21;;;;;;;31.80;8.55;;;8.10;99.70;;;;;;5069672;28;20134;-68
2022/10/11 08:09:46;;;;;;;34.25;7.93;;;8.30;99.80;;;;;;5070319;28;20040;-68
2022/10/11 08:12:12;;;;;;;30.60;8.23;;;8.30;99.60;;;;;;5069051;28;20036;-69
2022/10/11 08:14:38;;;;;;;40.10;8.60;;;8.40;99.50;;;;;;5070575;28;20064;-68
2022/10/11 08:17:03;;;;;;;34.40;7.88;;;8.50;99.40;;;;;;5071052;28;20385;-68
2022/10/11 08:19:29;;;;;;;39.13;8.43;;;8.60;99.20;;;;;;5080012;28;20080;-69
2022/10/11 08:21:54;;;;;;;31.00;7.15;;;8.60;99.10;;;;;;5060519;28;20109;-68
2022/10/11 08:24:20;;;;;;;28.27;6.85;;;8.70;98.90;;;;;;5077302;28;20343;-68
2022/10/11 08:26:46;;;;;;;37.28;7.85;;;8.80;98.60;;;;;;5059582;28;20125;-69
2022/10/11 08:29:13;;;;;;;27.67;7.80;;;8.80;98.30;;;;;;5068596;28;20033;-69
2022/10/11 08:31:39;;;;;;;31.15;7.38;;;9.00;98.40;;;;;;5069408;28;20120;-69
2022/10/11 08:34:05;;;;;;;36.90;7.47;;;9.10;97.90;;;;;;5069641;28;20139;-69
2022/10/11 08:36:31;;;;;;;26.98;6.80;;;9.20;97.60;;;;;;5071264;28;20060;-69
2022/10/11 08:38:57;;;;;;;33.17;7.30;;;9.30;97.40;;;;;;5070010;28;20033;-68
2022/10/11 08:41:37;;;;;;;39.15;7.43;;;9.30;96.80;;;;;;5065787;28;20523;-69
2022/10/11 08:44:17;;;;;;;36.65;7.65;;;9.50;96.90;;;;;;5068131;28;20139;-69
2022/10/11 08:46:49;;;;;;;32.92;8.02;;;9.60;96.20;;;;;;5062033;28;20044;-69
2022/10/11 08:49:18;;;;;;;29.13;7.78;;;9.60;95.80;;;;;;5058731;28;20028;-69
2022/10/11 08:51:58;;;;;;;38.42;7.07;;;9.80;95.70;;;;;;5069176;28;20024;-69
2022/10/11 08:54:39;;;;;;;20.58;6.47;;;9.80;95.30;;;;;;5064543;28;20033;-69
2022/10/11 08:57:06;;;;;;;32.67;7.05;;;10.00;95.00;;;;;;5074212;28;20119;-69
2022/10/11 08:59:40;;;;;;;27.88;6.78;;;10.00;94.90;;;;;;5069168;28;20060;-69
2022/10/11 09:02:24;;;;;;;24.50;6.35;;;10.30;94.90;;;;;;5070618;28;20425;-69
2022/10/11 09:04:52;;;;;;;27.35;6.72;;;10.30;94.00;;;;;;5067339;28;20441;-69
2022/10/11 09:07:40;;;;;;;26.30;6.63;;;10.40;93.60;;;;;;5048982;28;20458;-69
2022/10/11 09:10:27;;;;;;;35.97;7.28;;;10.50;93.70;;;;;;5055984;28;20021;-70
2022/10/11 09:13:29;;;;;;;38.78;5.22;;;10.70;93.40;;;;;;5062225;28;20048;-69
2022/10/11 09:16:27;;;;;;;31.60;5.30;;;10.90;92.50;;;;;;5066992;28;20052;-69
2022/10/11 09:19:15;;;;;;;36.80;5.60;;;11.10;92.40;;;;;;5053957;28;20033;-69
2022/10/11 09:22:02;;;;;;;19.92;4.70;;;11.10;91.60;;;;;;5067662;28;20096;-70
2022/10/11 09:24:44;;;;;;;28.95;4.57;;;11.20;91.30;;;;;;5064350;28;20040;-70
2022/10/11 09:27:27;;;;;;;21.27;3.60;;;11.10;90.20;;;;;;5066522;28;20032;-70
2022/10/11 09:30:15;;;;;;;24.98;3.70;;;11.20;89.90;;;;;;5071753;28;20100;-69
2022/10/11 09:32:50;;;;;;;15.85;3.53;;;11.40;90.00;;;;;;5068499;28;20027;-70
2022/10/11 09:35:21;;;;;;;20.40;4.20;;;11.40;88.70;;;;;;5067940;28;20044;-69
2022/10/11 09:38:17;;;;;;;17.63;3.30;;;11.60;89.00;;;;;;5067438;28;20039;-70
2022/10/11 09:40:58;;;;;;;21.23;3.45;;;11.60;89.00;;;;;;5060572;28;20442;-70
2022/10/11 09:43:24;;;;;;;15.00;2.80;;;11.60;87.30;;;;;;5066127;28;20028;-69
2022/10/11 09:45:49;;;;;;;16.00;3.45;;;11.70;88.00;;;;;;5061485;28;20036;-69
2022/10/11 09:48:31;;;;;;;16.27;2.90;;;11.70;87.40;;;;;;5067317;28;20060;-70
2022/10/11 09:51:14;;;;;;;13.05;2.63;;;11.80;86.50;;;;;;5067144;28;20107;-69
2022/10/11 09:53:56;;;;;;;16.65;2.53;;;12.00;85.40;;;;;;5066361;28;20068;-69
2022/10/11 09:56:24;;;;;;;11.30;2.50;;;12.10;85.10;;;;;;5066579;28;20273;-69
2022/10/11 09:59:25;;;;;;;15.50;2.78;;;12.30;85.50;;;;;;5068185;28;20102;-69
2022/10/11 10:02:15;;;;;;;12.85;2.65;;;12.50;85.00;;;;;;5064036;28;20347;-70
2022/10/11 10:04:59;;;;;;;15.77;2.63;;;12.60;84.30;;;;;;5064933;28;20089;-67
2022/10/11 10:07:25;;;;;;;12.52;2.90;;;12.70;83.30;;;;;;5066224;28;20120;-67
2022/10/11 10:09:51;;;;;;;12.52;2.10;;;12.90;83.20;;;;;;5066984;28;20463;-68
2022/10/11 10:12:27;;;;;;;17.98;2.47;;;13.00;81.40;;;;;;5064061;28;20039;-68
2022/10/11 10:15:12;;;;;;;12.60;1.95;;;13.10;82.10;;;;;;5076647;28;20036;-68
2022/10/11 10:17:38;;;;;;;9.65;2.10;;;13.20;82.40;;;;;;5053444;28;20025;-69
2022/10/11 10:20:05;;;;;;;9.52;1.73;;;13.40;81.80;;;;;;5047889;28;20099;-70
2022/10/11 10:22:33;;;;;;;12.38;2.20;;;13.50;81.80;;;;;;5066186;28;20106;-68
2022/10/11 10:25:01;;;;;;;9.07;2.00;;;13.40;80.00;;;;;;5066684;28;20032;-69
2022/10/11 10:27:30;;;;;;;12.60;2.28;;;13.50;79.80;;;;;;5076211;28;20437;-68
2022/10/11 10:30:07;;;;;;;12.00;2.50;;;13.50;80.10;;;;;;5058770;28;20449;-69
2022/10/11 10:32:49;;;;;;;11.68;2.30;;;13.60;79.50;;;;;;5065604;28;20043;-69
2022/10/11 10:35:29;;;;;;;10.75;2.00;;;13.70;78.70;;;;;;5065095;28;20132;-69
2022/10/11 10:38:04;;;;;;;12.43;2.58;;;13.80;78.90;;;;;;5063283;28;20024;-68
2022/10/11 10:40:37;;;;;;;13.57;2.42;;;13.70;77.20;;;;;;5064621;28;20429;-69
2022/10/11 10:43:03;;;;;;;16.67;2.72;;;13.80;76.10;;;;;;5063742;28;20093;-69
2022/10/11 10:45:50;;;;;;;10.05;2.00;;;14.00;76.70;;;;;;5064827;28;20469;-69
2022/10/11 10:48:42;;;;;;;11.50;1.83;;;14.20;75.80;;;;;;5066940;28;20039;-69
2022/10/11 10:51:39;;;;;;;11.80;2.22;;;14.60;76.20;;;;;;5061016;28;20024;-70
2022/10/11 10:54:30;;;;;;;14.80;2.15;;;14.50;75.00;;;;;;5061873;28;20033;-69
2022/10/11 10:57:03;;;;;;;12.65;2.05;;;14.60;74.20;;;;;;5059996;28;20035;-69
2022/10/11 11:00:00;;;;;;;14.10;2.35;;;14.40;73.00;;;;;;5064686;28;20060;-69
2022/10/11 11:02:52;;;;;;;13.52;2.65;;;14.50;73.10;;;;;;5061378;28;20417;-70
2022/10/11 11:05:51;;;;;;;13.60;2.40;;;14.40;73.50;;;;;;5069363;28;20036;-69
2022/10/11 11:08:35;;;;;;;14.80;2.80;;;14.50;75.30;;;;;;5071737;28;20422;-69
2022/10/11 11:11:01;;;;;;;8.43;2.08;;;14.70;75.10;;;;;;5078970;28;20025;-69
2022/10/11 11:13:49;;;;;;;12.05;2.17;;;14.90;73.00;;;;;;5067765;28;20077;-69
2022/10/11 11:16:32;;;;;;;15.35;2.60;;;15.00;72.80;;;;;;5071058;28;20029;-69
2022/10/11 11:19:22;;;;;;;12.30;2.15;;;15.20;72.20;;;;;;5071549;28;20115;-69
2022/10/11 11:22:18;;;;;;;10.35;2.03;;;15.50;71.40;;;;;;5062067;28;20107;-69
2022/10/11 11:25:02;;;;;;;10.35;1.85;;;15.50;69.10;;;;;;5064631;28;20033;-70
2022/10/11 11:27:47;;;;;;;15.25;2.40;;;15.70;69.00;;;;;;5068272;28;20112;-70
2022/10/11 11:30:21;;;;;;;7.95;1.85;;;15.40;69.10;;;;;;5070241;28;20082;-69
2022/10/11 11:33:01;;;;;;;9.75;2.00;;;15.40;69.60;;;;;;5064229;28;20107;-68
2022/10/11 11:35:36;;;;;;;11.53;1.50;;;15.20;69.40;;;;;;5075539;28;20105;-69
2022/10/11 11:38:31;;;;;;;11.00;2.15;;;14.90;69.60;;;;;;5075832;28;20029;-69
2022/10/11 11:41:01;;;;;;;12.13;1.90;;;14.80;71.60;;;;;;5068811;28;20032;-69
2022/10/11 11:43:36;;;;;;;9.98;1.67;;;15.00;70.80;;;;;;5063974;28;20052;-69
2022/10/11 11:46:09;;;;;;;14.55;2.40;;;15.50;68.80;;;;;;5064765;28;20036;-69
2022/10/11 11:48:35;;;;;;;9.52;1.75;;;15.20;68.60;;;;;;5067986;28;20033;-69
2022/10/11 11:51:17;;;;;;;12.25;2.33;;;15.60;68.80;;;;;;5082811;28;20090;-68
2022/10/11 11:53:54;;;;;;;9.73;1.83;;;16.00;67.20;;;;;;5067880;28;20044;-69
2022/10/11 11:56:53;;;;;;;13.00;2.30;;;15.60;67.20;;;;;;5062143;28;20024;-69
2022/10/11 11:59:36;;;;;;;12.40;2.58;;;15.50;67.70;;;;;;5060983;28;20055;-69
2022/10/11 12:02:33;;;;;;;11.38;2.22;;;15.50;68.70;;;;;;5066321;28;20029;-70
2022/10/11 12:05:00;;;;;;;12.10;1.95;;;15.60;68.90;;;;;;5064194;28;20042;-69
2022/10/11 12:07:27;;;;;;;11.02;2.10;;;16.10;68.00;;;;;;5068784;28;20467;-69
2022/10/11 12:10:13;;;;;;;8.50;2.28;;;16.00;66.90;;;;;;5067966;28;20400;-69
2022/10/11 12:12:39;;;;;;;12.38;2.05;;;15.80;68.20;;;;;;5067292;28;20033;-70
2022/10/11 12:15:08;;;;;;;10.38;1.75;;;15.60;67.90;;;;;;5068843;28;20348;-69
2022/10/11 12:17:54;;;;;;;10.43;2.30;;;15.50;68.10;;;;;;5070039;28;20032;-68
2022/10/11 12:20:25;;;;;;;8.63;1.60;;;15.00;68.60;;;;;;5068456;28;20349;-68
2022/10/11 12:22:52;;;;;;;;;;;14.70;70.90;;;;;;5070896;28;20422;-68
2022/10/11 12:25:21;;;;;;;9.95;2.08;;;14.50;71.40;;;;;;5059073;28;20297;-67
2022/10/11 12:27:55;;;;;;;13.13;1.75;;;14.30;72.80;;;;;;5065687;28;20024;-68
2022/10/11 12:30:42;;;;;;;12.32;2.15;;;14.10;73.40;;;;;;5068239;28;20539;-67
2022/10/11 12:33:19;;;;;;;12.02;2.38;;;14.10;73.90;;;;;;5068014;28;20032;-68
2022/10/11 12:35:56;;;;;;;9.07;1.63;;;14.00;74.30;;;;;;5070102;28;20152;-68
2022/10/11 12:38:23;;;;;;;8.95;1.50;;;13.90;75.10;;;;;;5069044;28;20047;-67
2022/10/11 12:41:09;;;;;;;14.75;1.80;;;13.70;74.50;;;;;;5067500;28;20029;-68
2022/10/11 12:44:03;;;;;;;10.90;2.25;;;13.60;75.00;;;;;;5067561;28;20044;-68
2022/10/11 12:46:28;;;;;;;11.15;1.80;;;13.60;75.90;;;;;;5063192;28;20044;-68
2022/10/11 12:49:03;;;;;;;11.40;2.55;;;13.60;76.50;;;;;;5069903;28;20029;-68
2022/10/11 12:51:41;;;;;;;12.43;2.47;;;13.50;76.70;;;;;;5057599;28;20032;-68
2022/10/11 12:54:36;;;;;;;10.30;1.75;;;13.50;78.10;;;;;;5067470;28;20044;-68
2022/10/11 12:57:08;;;;;;;8.82;1.92;;;13.50;79.10;;;;;;5063205;28;20413;-67
2022/10/11 12:59:37;;;;;;;11.68;1.92;;;13.50;78.50;;;;;;5081696;28;20031;-69
2022/10/11 13:02:35;;;;;;;10.60;2.22;;;13.50;78.60;;;;;;5061271;28;20028;-68
2022/10/11 13:05:28;;;;;;;10.77;2.13;;;13.60;77.70;;;;;;5066882;28;20052;-68
2022/10/11 13:07:57;;;;;;;11.45;2.25;;;13.80;78.00;;;;;;5067904;28;20048;-68
2022/10/11 13:10:42;;;;;;;11.32;2.33;;;13.80;77.70;;;;;;5071573;28;20060;-68